Terminal Aerodrome Forecast
Issued by NWS

Home | Current Version | Previous Version | Text Only | Print | Product List | Glossary On
Versions: 1 2 3 4 5 6 7 8 9 10 11 12 13 14 15 16 17 18 19 20 21
000
FTUS41 KPBZ 080106 AAA
TAFHLG
TAF AMD
KHLG 080106Z 0801/0824 21005KT P6SM VCSH OVC035
     FM080500 24006KT 3SM SHRA BR OVC012
     FM080900 24008KT 3SM -SHRA BR OVC008
     FM081500 33004KT 6SM BR OVC015
     FM081800 34005KT P6SM VCSH BKN025=

USA.gov is the U.S. government's official web portal to all federal, state and local government web resources and services.